Time;durP1;ratioP1;P1;durP2;ratioP2;P2;SDS_P1;SDS_P2;PMS_P1;PMS_P2;Temp;Humidity;BMP_temperature;BMP_pressure;BME280_temperature;BME280_humidity;BME280_pressure;Samples;Min_cycle;Max_cycle;Signal;HPM_P1;HPM_P2
2022/11/18 00:02:22;;;;;;;2.58;1.42;;;7.70;99.90;;;6.68;100.00;95566.50;5069646;28;21117;-77
2022/11/18 00:04:48;;;;;;;2.23;1.50;;;7.70;99.90;;;6.69;100.00;95568.03;5068843;28;20892;-77
2022/11/18 00:07:14;;;;;;;3.00;1.50;;;7.70;99.90;;;6.73;100.00;95569.09;5069368;28;20427;-77
2022/11/18 00:09:40;;;;;;;2.33;1.48;;;7.80;99.90;;;6.73;100.00;95569.09;5069291;28;20441;-77
2022/11/18 00:14:50;;;;;;;1.30;1.20;;;7.80;99.90;;;6.73;100.00;95569.09;5069094;28;20445;-78
2022/11/18 00:17:16;;;;;;;3.25;1.50;;;7.80;99.90;;;6.78;100.00;95560.38;5069499;28;20771;-78
2022/11/18 00:19:44;;;;;;;4.07;1.60;;;7.80;99.90;;;6.72;100.00;95557.00;5069367;28;20400;-77
2022/11/18 00:22:12;;;;;;;2.35;1.63;;;7.80;99.90;;;6.71;100.00;95559.88;5069426;28;20445;-78
2022/11/18 00:24:38;;;;;;;2.30;1.60;;;7.80;99.90;;;6.72;100.00;95559.63;5068643;28;20486;-78
2022/11/18 00:27:03;;;;;;;2.25;1.40;;;7.80;99.90;;;6.74;100.00;95562.00;5072214;28;20399;-78
2022/11/18 00:29:30;;;;;;;3.63;1.80;;;7.80;99.90;;;6.78;100.00;95555.13;5073208;28;20838;-78
2022/11/18 00:31:57;;;;;;;2.13;1.50;;;7.80;99.90;;;6.77;100.00;95553.53;5072757;28;20414;-78
2022/11/18 00:34:23;;;;;;;3.30;1.52;;;7.80;99.90;;;6.76;100.00;95562.50;5072200;28;20396;-77
2022/11/18 00:36:51;;;;;;;3.42;1.67;;;7.80;99.90;;;6.76;100.00;95568.56;5072955;28;20412;-77
2022/11/18 00:39:18;;;;;;;3.33;1.83;;;7.90;99.90;;;6.77;100.00;95562.22;5072599;28;20407;-77
2022/11/18 00:44:30;;;;;;;3.60;1.80;;;7.90;99.90;;;6.77;100.00;95558.81;5071955;28;20916;-77
2022/11/18 00:46:56;;;;;;;3.90;1.90;;;7.80;99.90;;;6.72;100.00;95564.88;5072664;28;20400;-77
2022/11/18 00:49:23;;;;;;;4.05;2.13;;;7.80;99.90;;;6.69;100.00;95567.28;5072696;28;20474;-77
2022/11/18 00:51:50;;;;;;;3.28;1.85;;;7.70;99.90;;;6.73;100.00;95569.09;5072623;28;20468;-77
2022/11/18 00:54:16;;;;;;;2.83;2.00;;;7.70;99.90;;;6.78;100.00;95569.06;5053791;28;20431;-77
2022/11/18 00:56:42;;;;;;;5.93;2.30;;;7.80;99.90;;;6.75;100.00;95561.72;5072445;28;20396;-77
2022/11/18 00:59:08;;;;;;;7.97;2.30;;;7.80;99.90;;;6.73;100.00;95570.94;5054639;28;20503;-77
2022/11/18 01:01:34;;;;;;;5.20;2.28;;;7.80;99.90;;;6.68;100.00;95569.13;5072466;28;20433;-77
2022/11/18 01:04:00;;;;;;;5.07;2.00;;;7.70;99.90;;;6.71;100.00;95563.31;5071575;28;20403;-77
2022/11/18 01:06:26;;;;;;;7.82;2.10;;;7.70;99.90;;;6.66;100.00;95560.72;5072415;28;20877;-77
2022/11/18 01:08:53;;;;;;;8.45;2.70;;;7.70;99.90;;;6.69;100.00;95569.91;5072642;28;20450;-77
2022/11/18 01:14:04;;;;;;;9.27;2.60;;;7.70;99.90;;;6.61;100.00;95574.66;5071626;28;20394;-77
2022/11/18 01:16:30;;;;;;;4.20;2.03;;;7.70;99.90;;;6.69;100.00;95572.53;5072201;28;20796;-77
2022/11/18 01:18:56;;;;;;;7.95;2.13;;;7.70;99.90;;;6.64;100.00;95562.03;5072391;28;20407;-77
2022/11/18 01:21:22;;;;;;;5.23;2.10;;;7.70;99.90;;;6.58;100.00;95569.16;5072034;28;20903;-76
2022/11/18 01:23:48;;;;;;;6.28;2.13;;;7.60;99.90;;;6.61;100.00;95579.91;5071457;28;20483;-76
2022/11/18 01:26:17;;;;;;;6.57;2.08;;;7.70;99.90;;;6.61;100.00;95566.75;5072117;28;20481;-76
2022/11/18 01:28:44;;;;;;;12.40;1.90;;;7.60;99.90;;;6.63;100.00;95570.97;5072200;28;20885;-76
2022/11/18 01:31:13;;;;;;;10.38;2.00;;;7.60;99.90;;;6.56;100.00;95569.44;5071908;28;20422;-76
2022/11/18 01:33:39;;;;;;;8.05;2.00;;;7.60;99.90;;;6.61;100.00;95573.91;5071461;28;20396;-76
2022/11/18 01:36:15;;;;;;;9.30;1.90;;;7.60;99.90;;;6.60;100.00;95575.72;5072064;28;20418;-76
2022/11/18 01:38:41;;;;;;;7.82;1.90;;;7.70;99.90;;;6.63;100.00;95568.34;5071890;28;20769;-76
2022/11/18 01:41:07;;;;;;;9.25;1.67;;;7.70;99.90;;;6.63;100.00;95584.13;5071833;28;20404;-75
2022/11/18 01:43:52;;;;;;;5.77;1.77;;;7.70;99.90;;;6.56;100.00;95587.81;5071062;28;20479;-76
2022/11/18 01:46:20;;;;;;;7.90;1.73;;;7.60;99.90;;;6.61;100.00;95594.91;5071670;28;20408;-76
2022/11/18 01:48:49;;;;;;;9.82;1.95;;;7.60;99.90;;;6.58;100.00;95593.59;5071701;28;20400;-76
2022/11/18 01:51:19;;;;;;;6.88;1.65;;;7.70;99.90;;;6.57;100.00;95593.88;5071596;28;20419;-75
2022/11/18 01:53:52;;;;;;;8.82;1.77;;;7.60;99.90;;;6.61;100.00;95597.56;5070837;28;20404;-76
2022/11/18 01:56:22;;;;;;;18.05;2.28;;;7.60;99.90;;;6.57;100.00;95599.91;5071501;28;20864;-76
2022/11/18 01:58:53;;;;;;;6.93;1.67;;;7.70;99.90;;;6.56;100.00;95602.81;5072105;28;20404;-76
2022/11/18 02:01:19;;;;;;;10.60;2.00;;;7.60;99.90;;;6.51;100.00;95611.50;5071445;28;20437;-75
2022/11/18 02:03:47;;;;;;;5.40;1.70;;;7.60;99.90;;;6.54;100.00;95615.47;5070739;28;20407;-75
2022/11/18 02:06:14;;;;;;;5.20;1.90;;;7.60;99.90;;;6.52;100.00;95620.97;5071579;28;20540;-75
2022/11/18 02:08:41;;;;;;;10.65;1.70;;;7.60;99.90;;;6.55;100.00;95617.78;5071802;28;20395;-75
2022/11/18 02:11:49;;;;;;;7.27;2.20;;;7.60;99.90;;;6.56;100.00;95618.59;5071127;28;20511;-75
2022/11/18 02:14:00;;;;;;;12.73;2.17;;;7.60;99.90;;;6.51;100.00;95626.50;5070217;28;20408;-75
2022/11/18 02:16:44;;;;;;;13.67;2.30;;;7.60;99.90;;;6.51;100.00;95623.88;5053406;28;20789;-75
2022/11/18 02:19:37;;;;;;;9.07;2.17;;;7.60;99.90;;;6.49;100.00;95634.63;5071550;28;20940;-75
2022/11/18 02:22:18;;;;;;;8.30;1.83;;;7.60;99.90;;;6.50;100.00;95630.16;5053575;28;20793;-75
2022/11/18 02:25:03;;;;;;;5.15;1.70;;;7.60;99.90;;;6.48;100.00;95629.66;5070495;28;20392;-76
2022/11/18 02:28:02;;;;;;;5.30;1.88;;;7.60;99.90;;;6.50;100.00;95633.59;5071401;28;20399;-75
2022/11/18 02:30:33;;;;;;;21.92;2.47;;;7.60;99.90;;;6.51;100.00;95627.28;5071056;28;20403;-75
2022/11/18 02:33:05;;;;;;;12.73;2.20;;;7.60;99.90;;;6.50;100.00;95627.53;5052298;28;20813;-75
2022/11/18 02:35:38;;;;;;;9.88;2.08;;;7.60;99.90;;;6.54;100.00;95629.34;5071406;28;20418;-75
2022/11/18 02:38:10;;;;;;;53.90;4.23;;;7.60;99.90;;;6.53;100.00;95632.28;5070915;28;20438;-74
2022/11/18 02:40:41;;;;;;;30.35;2.55;;;7.60;99.90;;;6.51;100.00;95640.44;5071074;28;20402;-75
2022/11/18 02:43:12;;;;;;;43.40;3.85;;;7.60;99.90;;;6.53;100.00;95632.28;5070248;28;20439;-74
2022/11/18 02:45:45;;;;;;;16.08;2.20;;;7.60;99.90;;;6.49;100.00;95636.47;5071040;28;20423;-75
2022/11/18 02:48:14;;;;;;;20.77;2.35;;;7.60;99.90;;;6.47;100.00;95636.75;5052413;28;20826;-75
2022/11/18 02:50:44;;;;;;;21.08;2.67;;;7.60;99.90;;;6.47;100.00;95638.56;5070749;28;20458;-76
2022/11/18 02:53:15;;;;;;;6.87;1.90;;;7.60;99.90;;;6.45;100.00;95641.50;5069970;28;20392;-75
2022/11/18 02:55:43;;;;;;;32.03;3.07;;;7.60;99.90;;;6.45;100.00;95644.13;5070657;28;20410;-75
2022/11/18 02:58:11;;;;;;;12.20;2.27;;;7.50;99.90;;;6.43;100.00;95640.97;5070592;28;20391;-74
2022/11/18 03:00:38;;;;;;;10.30;2.22;;;7.50;99.90;;;6.44;100.00;95645.19;5070495;28;20441;-75
2022/11/18 03:03:26;;;;;;;6.10;2.08;;;7.50;99.90;;;6.45;100.00;95645.97;5069943;28;20435;-75
2022/11/18 03:06:08;;;;;;;6.63;1.75;;;7.50;99.90;;;6.48;100.00;95655.94;5070550;28;20396;-75
2022/11/18 03:08:39;;;;;;;14.87;2.30;;;7.50;99.90;;;6.47;100.00;95663.03;5069964;28;20414;-75
2022/11/18 03:11:13;;;;;;;4.05;1.60;;;7.50;99.90;;;6.51;100.00;95666.72;5069725;28;20412;-75
2022/11/18 03:13:57;;;;;;;10.73;2.08;;;7.60;99.90;;;6.50;100.00;95674.84;5069226;28;20433;-75
2022/11/18 03:16:30;;;;;;;4.55;2.00;;;7.60;99.90;;;6.50;100.00;95677.47;5069866;28;20415;-75
2022/11/18 03:19:06;;;;;;;12.55;2.55;;;7.60;99.90;;;6.49;100.00;95679.31;5051816;28;20905;-75
2022/11/18 03:21:38;;;;;;;5.07;1.80;;;7.60;99.90;;;6.48;100.00;95677.75;5069818;28;20399;-75
2022/11/18 03:24:13;;;;;;;7.03;2.10;;;7.60;99.90;;;6.50;100.00;95682.75;5068847;28;20426;-75
2022/11/18 03:26:44;;;;;;;15.90;2.50;;;7.60;99.90;;;6.51;100.00;95685.09;5069833;28;20438;-75
2022/11/18 03:29:17;;;;;;;11.80;2.20;;;7.60;99.90;;;6.49;100.00;95697.72;5069895;28;20495;-75
2022/11/18 03:31:48;;;;;;;10.23;2.42;;;7.60;99.90;;;6.51;100.00;95706.13;5113260;22;20812;-72
2022/11/18 03:34:20;;;;;;;13.05;2.65;;;7.60;99.90;;;6.52;100.00;95699.03;5108538;28;20876;-72
2022/11/18 03:36:50;;;;;;;12.20;2.90;;;7.60;99.90;;;6.53;100.00;95708.50;5109270;28;20485;-73
2022/11/18 03:39:18;;;;;;;11.82;2.40;;;7.60;99.90;;;6.56;100.00;95718.47;5110250;28;20400;-73
2022/11/18 03:41:50;;;;;;;14.38;2.78;;;7.60;99.90;;;6.56;100.00;95716.63;5110203;28;20392;-73
2022/11/18 03:44:20;;;;;;;8.68;2.60;;;7.60;99.90;;;6.54;100.00;95725.84;5109341;28;20403;-73
2022/11/18 03:46:52;;;;;;;5.30;2.00;;;7.60;99.90;;;6.52;100.00;95727.94;5110211;28;20981;-73
2022/11/18 03:49:27;;;;;;;34.03;3.78;;;7.60;99.90;;;6.51;100.00;95729.78;5110367;28;20403;-73
2022/11/18 03:52:01;;;;;;;18.52;3.17;;;7.60;99.90;;;6.49;100.00;95731.88;5108506;28;20417;-73
2022/11/18 03:54:30;;;;;;;12.90;2.45;;;7.60;99.90;;;6.49;100.00;95736.34;5109282;28;20453;-73
2022/11/18 03:57:01;;;;;;;8.55;2.40;;;7.60;99.90;;;6.46;100.00;95739.53;5110161;28;20385;-73
2022/11/18 03:59:33;;;;;;;11.70;1.98;;;7.50;99.90;;;6.44;100.00;95741.63;5110106;28;20390;-73
2022/11/18 04:02:05;;;;;;;4.63;1.98;;;7.50;99.90;;;6.45;100.00;95744.00;5112911;28;20403;-73
2022/11/18 04:04:31;;;;;;;3.80;1.70;;;7.50;99.90;;;6.46;100.00;95735.06;5113320;28;20392;-72
2022/11/18 04:07:04;;;;;;;12.60;2.15;;;7.60;99.90;;;6.47;100.00;95736.63;5113581;28;20852;-73
2022/11/18 04:09:37;;;;;;;4.38;1.90;;;7.60;99.90;;;6.49;100.00;95742.41;5114006;28;20392;-72
2022/11/18 04:12:09;;;;;;;5.50;1.80;;;7.60;99.90;;;6.50;100.00;95743.97;5112460;28;20448;-72
2022/11/18 04:14:38;;;;;;;6.25;1.80;;;7.60;99.90;;;6.48;100.00;95748.72;5112967;28;20431;-73
2022/11/18 04:17:09;;;;;;;15.40;1.98;;;7.60;99.90;;;6.45;100.00;95754.50;5113965;28;20513;-72
2022/11/18 04:19:35;;;;;;;5.97;1.60;;;7.50;99.90;;;6.41;100.00;95748.19;5113833;28;20392;-73
2022/11/18 04:22:02;;;;;;;5.43;1.50;;;7.50;99.90;;;6.38;100.00;95756.63;5113786;28;20445;-72
2022/11/18 04:24:28;;;;;;;2.63;1.50;;;7.50;99.90;;;6.34;100.00;95758.19;5112988;28;20407;-73
2022/11/18 04:26:54;;;;;;;3.80;1.70;;;7.40;99.90;;;6.33;100.00;95761.84;5113971;28;20392;-72
2022/11/18 04:29:19;;;;;;;8.45;1.80;;;7.50;99.90;;;6.39;100.00;95758.16;5113740;27;20949;-73
2022/11/18 04:31:45;;;;;;;8.73;1.98;;;7.40;99.90;;;6.45;100.00;95764.22;5113427;28;20400;-72
2022/11/18 04:34:13;;;;;;;18.35;2.10;;;7.50;99.90;;;6.39;100.00;95776.56;5112864;28;20400;-73
2022/11/18 04:36:38;;;;;;;29.52;3.28;;;7.40;99.90;;;6.33;100.00;95780.25;5113627;28;20400;-72
2022/11/18 04:39:05;;;;;;;8.35;1.55;;;7.40;99.90;;;6.28;100.00;95768.97;5111500;28;20777;-73
2022/11/18 04:44:15;;;;;;;10.47;1.40;;;7.40;99.90;;;6.26;100.00;95765.81;5112374;28;20832;-72
2022/11/18 04:46:42;;;;;;;8.85;1.35;;;7.30;99.90;;;6.15;100.00;95767.66;5113197;28;20487;-72
2022/11/18 04:49:09;;;;;;;3.83;1.50;;;7.30;99.90;;;6.11;100.00;95770.00;5113479;28;20788;-72
2022/11/18 04:51:37;;;;;;;7.00;1.60;;;7.20;99.90;;;6.07;100.00;95771.59;5110190;27;20416;-72
2022/11/18 04:54:03;;;;;;;4.40;1.50;;;7.20;99.90;;;6.14;100.00;95768.69;5105949;28;20440;-74
2022/11/18 04:56:30;;;;;;;1.92;1.40;;;7.20;99.90;;;6.07;100.00;95773.44;5112917;28;20464;-74
2022/11/18 04:58:57;;;;;;;3.10;1.45;;;7.20;99.90;;;6.04;100.00;95774.72;5112883;28;20403;-74
2022/11/18 05:01:23;;;;;;;2.42;1.55;;;7.10;99.90;;;6.05;100.00;95778.16;5112418;28;20481;-73
2022/11/18 05:03:49;;;;;;;3.35;1.27;;;7.20;99.90;;;6.05;100.00;95781.56;5111350;28;20908;-74
2022/11/18 05:06:15;;;;;;;2.10;1.40;;;7.20;99.90;;;6.06;100.00;95783.16;5112213;28;20400;-74
2022/11/18 05:08:42;;;;;;;4.78;1.40;;;7.20;99.90;;;6.05;100.00;95788.66;5111708;28;20400;-74
2022/11/18 05:13:53;;;;;;;2.72;1.67;;;7.20;99.90;;;6.07;100.00;95789.97;5111232;28;20379;-80
2022/11/18 05:16:19;;;;;;;3.85;1.58;;;7.20;99.90;;;6.07;100.00;95791.81;5112168;28;20400;-74
2022/11/18 05:18:45;;;;;;;6.00;1.70;;;7.20;99.90;;;6.06;100.00;95792.84;5112350;28;20400;-74
2022/11/18 05:21:11;;;;;;;2.97;1.52;;;7.10;99.90;;;6.04;100.00;95797.56;5112002;28;20396;-75
2022/11/18 05:23:37;;;;;;;3.42;1.40;;;7.20;99.90;;;6.11;100.00;95795.47;5108479;28;20417;-74
2022/11/18 05:26:05;;;;;;;3.50;1.33;;;7.20;99.90;;;6.09;100.00;95800.22;5111653;28;20435;-73
2022/11/18 05:28:31;;;;;;;2.55;1.52;;;7.20;99.90;;;6.03;100.00;95796.78;5110835;28;20404;-74
2022/11/18 05:30:57;;;;;;;1.65;1.30;;;7.10;99.90;;;5.96;100.00;95798.09;5111810;28;20491;-73
2022/11/18 05:33:23;;;;;;;3.60;1.27;;;7.10;99.90;;;5.94;100.00;95797.59;5111002;28;20486;-73
2022/11/18 05:35:49;;;;;;;3.33;1.40;;;7.00;99.90;;;5.89;100.00;95798.34;5101370;28;20409;-73
2022/11/18 05:38:15;;;;;;;1.58;1.30;;;7.00;99.90;;;5.80;100.00;95805.91;5111790;28;20479;-74
2022/11/18 05:40:42;;;;;;;3.17;1.33;;;6.80;99.90;;;5.78;100.00;95810.66;5111698;28;20488;-73
2022/11/18 05:43:09;;;;;;;2.90;1.30;;;6.90;99.90;;;5.77;100.00;95809.06;5111253;28;20404;-73
2022/11/18 05:45:35;;;;;;;1.93;1.30;;;6.90;99.90;;;5.79;100.00;95811.41;5111812;28;20457;-74
2022/11/18 05:48:03;;;;;;;2.33;1.48;;;6.90;99.90;;;5.86;100.00;95819.84;5111846;28;20450;-74
2022/11/18 05:50:30;;;;;;;1.17;1.08;;;7.00;99.90;;;5.86;100.00;95819.84;5110987;28;20395;-74
2022/11/18 05:52:56;;;;;;;2.20;1.50;;;6.90;99.90;;;5.81;100.00;95818.00;5110496;28;20462;-74
2022/11/18 05:55:26;;;;;;;1.90;1.20;;;6.90;99.90;;;5.82;100.00;95818.78;5111581;28;20389;-74
2022/11/18 05:57:52;;;;;;;2.53;1.27;;;6.90;99.90;;;5.79;100.00;95820.06;5111960;28;20443;-74
2022/11/18 06:00:19;;;;;;;3.40;1.30;;;6.90;99.90;;;5.72;100.00;95819.53;5111980;27;20396;-74
2022/11/18 06:02:49;;;;;;;2.55;1.30;;;6.80;99.90;;;5.71;100.00;95823.19;5110578;28;20403;-74
2022/11/18 06:05:17;;;;;;;1.40;1.30;;;6.80;99.90;;;5.67;100.00;95823.97;5108675;28;20865;-74
2022/11/18 06:07:44;;;;;;;1.50;1.20;;;6.80;99.90;;;5.63;100.00;95828.97;5111486;28;20407;-73
2022/11/18 06:10:17;;;;;;;4.03;1.50;;;6.80;99.90;;;5.67;100.00;95839.72;5127261;27;20483;-74
2022/11/18 06:12:46;;;;;;;2.15;1.30;;;6.80;99.90;;;5.66;100.00;95836.31;5107768;28;20541;-74
2022/11/18 06:15:17;;;;;;;2.30;1.30;;;6.80;99.90;;;5.62;100.00;95837.91;5109789;28;20461;-74
2022/11/18 06:17:50;;;;;;;4.37;1.40;;;6.80;99.90;;;5.65;100.00;95841.81;5109772;28;20537;-73
2022/11/18 06:20:18;;;;;;;2.22;1.30;;;6.80;99.90;;;5.68;100.00;95844.72;5110752;28;20428;-73
2022/11/18 06:22:48;;;;;;;2.13;1.60;;;6.80;99.90;;;5.70;100.00;95847.91;5108506;28;20404;-74
2022/11/18 06:25:15;;;;;;;1.65;1.42;;;6.80;99.90;;;5.72;100.00;95847.63;5110467;28;20424;-74
2022/11/18 06:27:42;;;;;;;2.10;1.23;;;6.90;99.90;;;5.72;100.00;95856.28;5111113;28;20834;-74
2022/11/18 06:30:09;;;;;;;1.75;1.35;;;6.90;99.90;;;5.72;100.00;95853.66;5111450;28;20757;-74
2022/11/18 06:32:35;;;;;;;3.08;1.55;;;6.90;99.90;;;5.71;100.00;95854.69;5109903;28;20469;-74
2022/11/18 06:35:03;;;;;;;2.92;1.60;;;6.90;99.90;;;5.68;100.00;95859.69;5110615;28;20404;-74
2022/11/18 06:37:29;;;;;;;3.40;1.50;;;6.80;99.90;;;5.67;100.00;95858.13;5111405;27;20532;-74
2022/11/18 06:39:55;;;;;;;2.38;1.50;;;6.80;99.90;;;5.63;100.00;95860.47;5111407;28;20526;-74
2022/11/18 06:45:07;;;;;;;2.40;1.40;;;6.80;99.90;;;5.71;100.00;95869.69;5110941;28;20451;-75
2022/11/18 06:47:32;;;;;;;2.42;1.60;;;6.80;99.90;;;5.65;100.00;95868.84;5111236;28;20415;-74
2022/11/18 06:49:58;;;;;;;1.45;1.30;;;6.80;99.90;;;5.67;100.00;95877.28;5111019;28;20396;-74
2022/11/18 06:52:26;;;;;;;2.53;1.52;;;6.80;99.90;;;5.73;100.00;95880.69;5110741;28;20430;-73
2022/11/18 06:54:52;;;;;;;2.42;1.55;;;6.80;99.90;;;5.70;100.00;95870.72;5110218;28;20392;-74
2022/11/18 06:57:18;;;;;;;2.85;1.42;;;6.80;99.90;;;5.69;100.00;95877.81;5110906;28;20403;-74
2022/11/18 06:59:44;;;;;;;3.13;1.50;;;6.80;99.90;;;5.72;100.00;95881.75;5110967;28;20396;-74
2022/11/18 07:02:10;;;;;;;1.90;1.40;;;6.80;99.90;;;5.77;100.00;95887.81;5110709;28;20392;-74
2022/11/18 07:04:38;;;;;;;6.05;1.60;;;6.90;99.90;;;5.83;100.00;95889.41;5110142;28;20425;-74
2022/11/18 07:07:04;;;;;;;3.97;1.30;;;6.90;99.90;;;5.88;100.00;95891.28;5110751;28;20487;-74
2022/11/18 07:09:32;;;;;;;4.10;1.60;;;7.00;99.90;;;5.88;100.00;95891.28;5110748;28;20822;-73
2022/11/18 07:11:58;;;;;;;1.77;1.50;;;7.00;99.90;;;5.82;100.00;95897.56;5110469;28;20507;-74
2022/11/18 07:14:24;;;;;;;3.17;1.70;;;6.90;99.90;;;5.82;100.00;95900.97;5109816;28;20471;-74
2022/11/18 07:16:50;;;;;;;4.53;1.60;;;7.00;99.90;;;5.83;100.00;95907.81;5110688;28;20916;-74
2022/11/18 07:19:16;;;;;;;4.85;1.50;;;6.90;99.90;;;5.81;100.00;95907.25;5110652;28;20404;-73
2022/11/18 07:21:42;;;;;;;3.30;1.60;;;6.90;99.90;;;5.78;100.00;95909.63;5110551;28;20417;-74
2022/11/18 07:24:11;;;;;;;8.00;1.83;;;6.90;99.90;;;5.86;100.00;95916.22;5109764;28;20400;-73
2022/11/18 07:26:38;;;;;;;3.47;1.50;;;6.90;99.90;;;5.86;100.00;95910.97;5110542;28;20494;-74
2022/11/18 07:29:04;;;;;;;5.78;1.67;;;7.00;99.90;;;5.89;100.00;95918.34;5110573;28;20810;-74
2022/11/18 07:31:32;;;;;;;3.00;1.50;;;7.00;99.90;;;5.95;100.00;95917.31;5108816;28;20775;-74
2022/11/18 07:33:58;;;;;;;3.47;1.30;;;7.00;99.90;;;5.95;100.00;95928.59;5109517;28;20396;-74
2022/11/18 07:36:27;;;;;;;1.67;1.20;;;7.00;99.90;;;5.97;100.00;95920.47;5110837;27;20411;-74
2022/11/18 07:38:53;;;;;;;3.05;1.50;;;7.00;99.90;;;6.04;100.00;95924.44;5111396;28;20393;-73
2022/11/18 07:41:22;;;;;;;4.70;1.50;;;7.10;99.90;;;6.05;100.00;95928.66;5110219;28;20483;-73
2022/11/18 07:43:50;;;;;;;1.95;1.20;;;7.10;99.90;;;6.04;100.00;95934.94;5109457;28;20408;-74
2022/11/18 07:46:19;;;;;;;1.60;1.30;;;7.10;99.90;;;6.13;100.00;95937.88;5110289;28;20456;-74
2022/11/18 07:48:47;;;;;;;1.73;1.25;;;7.10;99.90;;;6.10;100.00;95943.63;5110261;28;20394;-73
2022/11/18 07:51:15;;;;;;;3.25;1.33;;;7.10;99.90;;;6.11;100.00;95942.59;5110277;28;20412;-73
2022/11/18 07:53:42;;;;;;;4.45;1.55;;;7.10;99.90;;;6.11;100.00;95942.59;5109192;28;20407;-73
2022/11/18 07:56:09;;;;;;;2.17;1.30;;;7.20;99.90;;;6.16;100.00;95946.00;5110078;28;20401;-74
2022/11/18 07:58:36;;;;;;;3.72;1.60;;;7.20;99.90;;;6.12;100.00;95954.69;5110152;28;20670;-74
2022/11/18 08:01:09;;;;;;;3.63;1.35;;;7.20;99.90;;;6.15;100.00;95949.72;5108462;28;20396;-74
2022/11/18 08:03:36;;;;;;;2.53;1.40;;;7.20;99.90;;;6.14;100.00;95966.53;5109129;28;20427;-74
2022/11/18 08:06:04;;;;;;;1.50;1.40;;;7.20;99.90;;;6.17;100.00;95968.63;5109968;28;20891;-74
2022/11/18 08:08:30;;;;;;;1.83;1.40;;;7.30;99.90;;;6.24;100.00;95965.75;5108544;28;20396;-74
2022/11/18 08:10:57;;;;;;;2.78;1.27;;;7.30;99.90;;;6.25;100.00;95972.59;5109759;28;20450;-74
2022/11/18 08:13:24;;;;;;;2.10;1.50;;;7.30;99.90;;;6.29;100.00;95976.28;5107948;28;20743;-74
2022/11/18 08:15:50;;;;;;;1.60;1.33;;;7.40;99.90;;;6.35;100.00;95974.47;5110330;28;20415;-74
2022/11/18 08:18:18;;;;;;;1.77;1.40;;;7.40;99.90;;;6.38;100.00;95980.00;5110017;28;20396;-74
2022/11/18 08:20:44;;;;;;;1.95;1.45;;;7.40;99.90;;;6.40;100.00;95991.03;5109827;28;20404;-74
2022/11/18 08:23:10;;;;;;;2.38;1.40;;;7.50;99.90;;;6.45;100.00;95992.91;5109214;28;20399;-74
2022/11/18 08:25:36;;;;;;;2.70;1.30;;;7.50;99.90;;;6.45;100.00;95991.06;5110068;28;20431;-74
2022/11/18 08:28:02;;;;;;;2.70;1.30;;;7.50;99.90;;;6.50;100.00;95993.69;5110092;28;20408;-74
2022/11/18 08:30:28;;;;;;;3.38;1.48;;;7.60;99.90;;;6.50;100.00;95998.16;5109638;28;20743;-74
2022/11/18 08:32:54;;;;;;;5.10;1.35;;;7.60;99.90;;;6.51;100.00;96003.16;5109008;28;20503;-74
2022/11/18 08:35:21;;;;;;;4.27;1.40;;;7.60;99.90;;;6.48;100.00;96003.66;5109429;28;20401;-74
2022/11/18 08:37:47;;;;;;;2.30;1.33;;;7.50;99.90;;;6.53;100.00;96008.97;5109728;28;20491;-74
2022/11/18 08:40:30;;;;;;;5.23;1.87;;;7.50;99.90;;;6.52;100.00;96012.63;5109710;28;20545;-74
2022/11/18 08:42:56;;;;;;;2.15;1.45;;;7.60;99.90;;;6.53;100.00;96006.34;5108594;28;20392;-74
2022/11/18 08:45:21;;;;;;;1.50;1.33;;;7.60;99.90;;;6.70;100.00;96000.84;5107257;28;20443;-75
2022/11/18 08:47:47;;;;;;;2.83;1.30;;;7.60;99.90;;;6.59;100.00;96007.94;5127498;27;20573;-74
2022/11/18 08:50:13;;;;;;;3.20;1.40;;;7.60;99.90;;;6.55;100.00;96004.22;5106880;28;20514;-74
2022/11/18 08:52:43;;;;;;;1.73;1.20;;;7.60;99.90;;;6.50;100.00;96019.19;5106186;28;20447;-73
2022/11/18 08:55:09;;;;;;;2.35;1.38;;;7.60;99.90;;;6.54;100.00;96023.66;5106382;28;20417;-74
2022/11/18 08:57:35;;;;;;;1.77;1.30;;;7.60;99.90;;;6.57;100.00;96019.75;5111084;28;20401;-73
2022/11/18 09:00:09;;;;;;;2.03;1.35;;;7.60;99.90;;;6.56;100.00;96020.78;5110703;28;20493;-73
2022/11/18 09:02:35;;;;;;;2.20;1.30;;;7.60;99.90;;;6.59;100.00;96023.69;5111055;28;20399;-73
2022/11/18 09:05:01;;;;;;;2.97;1.40;;;7.60;99.90;;;6.70;100.00;96036.84;5111511;28;20412;-74
2022/11/18 09:07:27;;;;;;;1.57;1.23;;;7.70;99.90;;;6.65;100.00;96026.31;5112588;28;20428;-74
2022/11/18 09:09:55;;;;;;;1.77;1.48;;;7.70;99.90;;;6.58;100.00;96026.56;5112345;28;20396;-74
2022/11/18 09:12:21;;;;;;;3.30;1.35;;;7.60;99.90;;;6.55;100.00;96038.38;5106770;28;20416;-74
2022/11/18 09:14:47;;;;;;;4.68;1.65;;;7.60;99.90;;;6.58;100.00;96037.88;5106398;28;20430;-73
2022/11/18 09:17:14;;;;;;;1.73;1.33;;;7.60;99.90;;;6.61;100.00;96036.59;5108547;28;20408;-74
2022/11/18 09:19:40;;;;;;;2.45;1.40;;;7.60;99.90;;;6.59;100.00;96042.09;5111714;28;20392;-74
2022/11/18 09:22:06;;;;;;;2.70;1.27;;;7.60;99.90;;;6.56;100.00;96041.81;5112509;27;20461;-74
2022/11/18 09:24:33;;;;;;;3.72;1.30;;;7.60;99.90;;;6.61;100.00;96049.75;5108398;28;20431;-75
2022/11/18 09:27:03;;;;;;;5.63;1.25;;;7.60;99.90;;;6.65;100.00;96037.63;5109230;28;20478;-75
2022/11/18 09:29:29;;;;;;;8.45;1.42;;;7.70;99.90;;;6.72;100.00;96048.69;5111336;28;20428;-75
2022/11/18 09:31:55;;;;;;;2.27;1.30;;;7.70;99.90;;;6.73;100.00;96049.50;5116259;22;20430;-79
2022/11/18 09:34:22;;;;;;;4.00;1.30;;;7.80;99.90;;;6.72;100.00;96050.53;5090032;28;20483;-78
2022/11/18 09:36:48;;;;;;;4.40;1.52;;;7.80;99.90;;;6.73;100.00;96054.75;5081123;28;20860;-78
2022/11/18 09:39:14;;;;;;;2.87;1.40;;;7.80;99.90;;;6.80;100.00;96053.47;5086626;28;20423;-80
2022/11/18 09:41:45;;;;;;;2.10;1.48;;;7.80;99.90;;;6.89;100.00;96059.81;5086240;28;20419;-81
2022/11/18 09:44:29;;;;;;;4.18;1.40;;;7.90;99.90;;;6.97;100.00;96053.25;5066263;28;20900;-81
2022/11/18 09:47:10;;;;;;;2.40;1.50;;;8.00;99.90;;;6.96;100.00;96054.28;5069824;28;20458;-81
2022/11/18 09:49:39;;;;;;;3.10;1.70;;;8.00;99.90;;;7.07;100.00;96055.09;5064555;28;20461;-80
2022/11/18 09:52:14;;;;;;;1.88;1.38;;;8.10;99.90;;;7.16;100.00;96056.94;5066088;28;20981;-80
2022/11/18 09:54:40;;;;;;;3.47;1.65;;;8.20;99.90;;;7.19;100.00;96064.31;5067763;28;20420;-79
2022/11/18 09:57:14;;;;;;;1.83;1.42;;;8.20;99.90;;;7.23;100.00;96067.22;5077929;28;20439;-79
2022/11/18 09:59:43;;;;;;;2.83;1.60;;;8.20;99.90;;;7.31;100.00;96069.31;5053210;28;20420;-80
2022/11/18 10:02:40;;;;;;;3.63;1.77;;;8.30;99.90;;;7.46;100.00;96071.16;5057525;28;20407;-79
2022/11/18 10:05:16;;;;;;;2.97;1.60;;;8.40;99.90;;;7.54;100.00;96074.06;5057715;28;20451;-80
2022/11/18 10:07:55;;;;;;;3.83;1.60;;;8.50;99.90;;;7.62;100.00;96075.38;5065204;28;20679;-80
2022/11/18 10:10:29;;;;;;;2.45;1.60;;;8.60;99.90;;;7.59;100.00;96073.31;5064261;28;20773;-80
2022/11/18 10:13:04;;;;;;;2.63;1.70;;;8.60;99.90;;;7.55;100.00;96080.94;5069841;28;20424;-81
2022/11/18 10:15:43;;;;;;;1.90;1.60;;;8.60;99.90;;;7.63;100.00;96088.31;5070773;28;20411;-80
2022/11/18 10:18:24;;;;;;;3.33;1.80;;;8.60;99.90;;;7.60;100.00;96088.81;5073761;28;20408;-80
2022/11/18 10:20:55;;;;;;;4.07;2.10;;;8.60;99.90;;;7.55;100.00;96085.41;5067349;28;20445;-81
2022/11/18 10:23:28;;;;;;;3.53;1.75;;;8.60;99.90;;;7.56;100.00;96089.63;5063061;28;20404;-81
2022/11/18 10:25:54;;;;;;;3.58;2.00;;;8.50;99.90;;;7.49;100.00;96094.34;5064160;28;20478;-82
2022/11/18 10:28:23;;;;;;;2.60;1.80;;;8.50;99.90;;;7.47;100.00;96094.63;5049936;28;20425;-83
2022/11/18 10:30:51;;;;;;;3.92;2.38;;;8.50;99.90;;;7.63;100.00;96093.56;5056344;28;20415;-81
2022/11/18 10:33:25;;;;;;;5.13;2.80;;;8.50;99.90;;;7.62;100.00;96099.88;5066926;28;20419;-86
2022/11/18 10:36:18;;;;;;;5.68;2.45;;;8.60;99.90;;;7.66;100.00;96100.97;5070533;28;20408;-79
2022/11/18 10:38:44;;;;;;;4.75;2.33;;;8.60;99.90;;;7.81;100.00;96102.00;5061852;28;20411;-79
2022/11/18 10:41:14;;;;;;;3.63;2.33;;;8.70;99.90;;;8.07;100.00;96099.06;5073720;28;21033;-81
2022/11/18 10:43:49;;;;;;;5.75;2.35;;;9.00;99.90;;;8.39;100.00;96104.03;5066078;28;20412;-80
2022/11/18 10:46:26;;;;;;;5.57;2.25;;;9.30;99.90;;;8.77;100.00;96099.94;5068522;28;20420;-78
2022/11/18 10:49:16;;;;;;;5.05;2.08;;;9.70;99.90;;;8.95;100.00;96101.16;5064537;28;20430;-79
2022/11/18 10:51:44;;;;;;;5.78;1.95;;;9.90;99.90;;;8.98;100.00;96097.22;5064407;28;21011;-83